createdAt,value
2022-12-13T00:00:37.495Z,-3.24
2022-12-13T00:04:39.016Z,-3.24
2022-12-13T00:08:41.683Z,-3.27
2022-12-13T00:12:43.020Z,-3.27
2022-12-13T00:16:45.698Z,-3.29
2022-12-13T00:20:47.121Z,-3.32
2022-12-13T00:24:48.611Z,-3.35
2022-12-13T00:28:51.250Z,-3.44
2022-12-13T00:37:05.802Z,-3.51
2022-12-13T00:41:11.491Z,-3.55
2022-12-13T00:45:13.482Z,-3.60
2022-12-13T00:49:15.108Z,-3.60
2022-12-13T00:53:16.391Z,-3.60
2022-12-13T00:57:17.719Z,-3.58
2022-12-13T01:01:20.369Z,-3.53
2022-12-13T01:05:47.220Z,-3.51
2022-12-13T01:09:43.036Z,-3.50
2022-12-13T01:13:44.683Z,-3.49
2022-12-13T01:17:47.242Z,-3.48
2022-12-13T01:21:48.919Z,-3.51
2022-12-13T01:25:50.586Z,-3.51
2022-12-13T01:29:51.927Z,-3.53
2022-12-13T01:33:53.602Z,-3.56
2022-12-13T01:37:55.572Z,-3.55
2022-12-13T01:42:02.728Z,-3.54
2022-12-13T01:46:04.751Z,-3.55
2022-12-13T01:50:08.629Z,-3.56
2022-12-13T01:54:12.714Z,-3.56
2022-12-13T01:58:23.034Z,-3.58
2022-12-13T02:02:24.361Z,-3.58
2022-12-13T02:06:25.650Z,-3.60
2022-12-13T02:10:27.571Z,-3.60
2022-12-13T02:14:28.876Z,-3.60
2022-12-13T02:18:39.262Z,-3.63
2022-12-13T02:22:40.600Z,-3.60
2022-12-13T02:26:41.986Z,-3.62
2022-12-13T02:30:47.356Z,-3.63
2022-12-13T02:34:56.782Z,-3.65
2022-12-13T02:39:01.423Z,-3.66
2022-12-13T02:43:08.759Z,-3.69
2022-12-13T02:47:22.005Z,-3.70
2022-12-13T02:51:24.956Z,-3.69
2022-12-13T02:55:28.344Z,-3.68
2022-12-13T02:59:31.571Z,-3.72
2022-12-13T03:03:42.597Z,-3.73
2022-12-13T03:07:46.780Z,-3.76
2022-12-13T03:12:27.348Z,-3.77
2022-12-13T03:16:37.659Z,-3.76
2022-12-13T03:20:39.390Z,-3.78
2022-12-13T03:24:40.682Z,-3.80
2022-12-13T03:28:42.066Z,-3.82
2022-12-13T03:32:43.299Z,-3.84
2022-12-13T03:36:44.620Z,-3.88
2022-12-13T03:40:46.012Z,-3.93
2022-12-13T03:44:47.589Z,-3.96
2022-12-13T03:48:49.088Z,-3.93
2022-12-13T03:52:51.884Z,-3.96
2022-12-13T03:56:53.222Z,-3.97
2022-12-13T04:00:54.539Z,-3.95
2022-12-13T04:04:55.815Z,-3.93
2022-12-13T04:09:02.146Z,-3.90
2022-12-13T04:13:22.272Z,-3.90
2022-12-13T04:17:23.922Z,-3.90
2022-12-13T04:21:25.259Z,-3.93
2022-12-13T04:25:26.678Z,-3.95
2022-12-13T04:29:34.128Z,-3.96
2022-12-13T04:33:36.696Z,-3.98
2022-12-13T04:37:38.068Z,-3.99
2022-12-13T04:41:39.475Z,-3.98
2022-12-13T04:45:41.102Z,-3.99
2022-12-13T04:49:42.654Z,-4.00
2022-12-13T04:53:44.608Z,-4.02
2022-12-13T04:57:45.928Z,-4.01
2022-12-13T05:01:49.514Z,-4.02
2022-12-13T05:05:50.841Z,-4.02
2022-12-13T05:09:52.211Z,-4.01
2022-12-13T05:13:53.493Z,-4.03
2022-12-13T05:17:54.809Z,-4.04
2022-12-13T05:21:56.550Z,-4.04
2022-12-13T05:26:03.426Z,-4.03
2022-12-13T05:30:05.493Z,-4.01
2022-12-13T05:34:06.853Z,-4.02
2022-12-13T05:38:08.273Z,-4.03
2022-12-13T05:42:09.581Z,-4.04
2022-12-13T05:46:12.931Z,-4.04
2022-12-13T05:50:15.089Z,-4.04
2022-12-13T05:54:16.587Z,-4.04
2022-12-13T05:58:23.292Z,-4.06
2022-12-13T06:02:25.291Z,-4.06
2022-12-13T06:06:26.688Z,-4.07
2022-12-13T06:10:34.431Z,-4.08
2022-12-13T06:14:36.776Z,-4.10
2022-12-13T06:18:38.105Z,-4.10
2022-12-13T06:22:39.536Z,-4.12
2022-12-13T06:26:41.167Z,-4.12
2022-12-13T06:30:42.998Z,-4.11
2022-12-13T06:34:44.819Z,-4.11
2022-12-13T06:38:46.146Z,-4.11
2022-12-13T06:42:47.622Z,-4.10
2022-12-13T06:46:49.150Z,-4.10
2022-12-13T06:50:50.574Z,-4.11
2022-12-13T06:54:58.323Z,-4.11
2022-12-13T06:59:02.183Z,-4.13
2022-12-13T07:03:03.813Z,-4.14
2022-12-13T07:07:05.339Z,-4.14
2022-12-13T07:11:06.827Z,-4.14
2022-12-13T07:15:08.992Z,-4.11
2022-12-13T07:19:22.829Z,-4.11
2022-12-13T07:23:25.678Z,-4.12
2022-12-13T07:27:26.979Z,-4.12
2022-12-13T07:31:28.772Z,-4.12
2022-12-13T07:35:30.756Z,-4.12
2022-12-13T07:39:32.536Z,-4.12
2022-12-13T07:43:34.332Z,-4.10
2022-12-13T07:47:35.867Z,-4.08
2022-12-13T07:51:37.172Z,-4.07
2022-12-13T07:55:39.807Z,-4.02
2022-12-13T07:59:41.053Z,-4.00
2022-12-13T08:03:42.503Z,-3.98
2022-12-13T08:07:43.807Z,-3.90
2022-12-13T08:11:45.692Z,-3.83
2022-12-13T08:15:47.195Z,-3.77
2022-12-13T08:19:48.810Z,-3.67
2022-12-13T08:23:50.086Z,-3.55
2022-12-13T08:27:51.868Z,-3.41
2022-12-13T08:31:53.306Z,-3.30
2022-12-13T08:35:55.114Z,-3.14
2022-12-13T08:39:56.407Z,-3.00
2022-12-13T08:43:57.887Z,-2.92
2022-12-13T08:48:00.290Z,-2.79
2022-12-13T08:52:01.949Z,-2.66
2022-12-13T08:56:04.663Z,-2.58
2022-12-13T09:00:06.700Z,-2.62
2022-12-13T09:04:08.030Z,-2.60
2022-12-13T09:08:24.695Z,-2.59
2022-12-13T09:12:30.583Z,-2.57
2022-12-13T09:16:36.421Z,-2.54
2022-12-13T09:20:41.184Z,-2.51
2022-12-13T09:24:43.593Z,-2.49
2022-12-13T09:28:51.603Z,-2.45
2022-12-13T09:32:53.047Z,-2.40
2022-12-13T09:36:54.289Z,-2.34
2022-12-13T09:41:29.020Z,-2.26
2022-12-13T09:45:31.710Z,-2.22
2022-12-13T09:49:36.110Z,-2.18
2022-12-13T09:53:37.838Z,-2.13
2022-12-13T09:57:39.664Z,-2.09
2022-12-13T10:01:41.139Z,-1.98
2022-12-13T10:05:51.483Z,-1.93
2022-12-13T10:09:58.620Z,-1.88
2022-12-13T10:14:09.968Z,-1.80
2022-12-13T10:18:14.477Z,-1.80
2022-12-13T10:22:16.658Z,-1.80
2022-12-13T10:26:23.984Z,-1.76
2022-12-13T10:30:29.180Z,-1.74
2022-12-13T10:34:39.121Z,-1.65
2022-12-13T10:38:42.907Z,-1.56
2022-12-13T10:42:44.355Z,-1.52
2022-12-13T10:47:03.038Z,-1.53
2022-12-13T10:51:04.557Z,-1.50
2022-12-13T10:55:23.045Z,-1.49
2022-12-13T10:59:25.539Z,-1.43
2022-12-13T11:03:32.422Z,-1.37
2022-12-13T11:07:34.105Z,-1.29
2022-12-13T11:11:35.792Z,-1.20
2022-12-13T11:15:38.363Z,-1.18
2022-12-13T11:19:44.152Z,-1.13
2022-12-13T11:23:46.042Z,-1.11
2022-12-13T11:27:47.339Z,-1.12
2022-12-13T11:32:02.459Z,-1.07
2022-12-13T11:36:13.022Z,-1.13
2022-12-13T11:40:15.547Z,-1.13
2022-12-13T11:44:23.562Z,-1.16
2022-12-13T11:48:52.447Z,-1.18
2022-12-13T11:53:01.570Z,-1.16
2022-12-13T11:57:11.488Z,-1.12
2022-12-13T12:01:17.541Z,-1.05
2022-12-13T12:05:22.480Z,-0.97
2022-12-13T12:09:27.324Z,-0.87
2022-12-13T12:13:33.252Z,-0.84
2022-12-13T12:17:42.531Z,-0.83
2022-12-13T12:22:18.487Z,-0.77
2022-12-13T12:26:35.648Z,-0.73
2022-12-13T12:30:44.156Z,-0.66
2022-12-13T12:34:45.962Z,-0.63
2022-12-13T12:39:06.148Z,-0.58
2022-12-13T12:43:20.234Z,-0.54
2022-12-13T12:52:16.024Z,-0.43
2022-12-13T12:56:17.312Z,-0.36
2022-12-13T13:18:47.110Z,-0.01
2022-12-13T13:23:03.959Z,0.06
2022-12-13T13:27:10.556Z,0.12
2022-12-13T13:31:12.572Z,0.16
2022-12-13T13:35:37.753Z,0.14
2022-12-13T13:39:54.232Z,0.18
2022-12-13T13:43:55.531Z,0.18
2022-12-13T13:48:14.919Z,0.13
2022-12-13T13:52:26.389Z,0.11
2022-12-13T13:56:40.207Z,0.06
2022-12-13T14:00:54.264Z,0.10
2022-12-13T14:05:14.417Z,0.09
2022-12-13T14:09:33.951Z,0.03
2022-12-13T14:13:45.109Z,-0.06
2022-12-13T14:18:24.143Z,-0.13
2022-12-13T14:27:20.149Z,-0.33
2022-12-13T14:31:41.618Z,-0.38
2022-12-13T14:35:50.174Z,-0.43
2022-12-13T14:40:23.311Z,-0.49
2022-12-13T14:44:27.929Z,-0.53
2022-12-13T14:48:33.743Z,-0.59
2022-12-13T14:52:40.088Z,-0.68
2022-12-13T14:56:55.796Z,-0.70
2022-12-13T15:00:59.963Z,-0.73
2022-12-13T15:05:05.644Z,-0.75
2022-12-13T15:09:14.733Z,-0.81
2022-12-13T15:13:29.017Z,-0.87
2022-12-13T15:17:37.127Z,-0.93
2022-12-13T15:21:38.506Z,-1.00
2022-12-13T15:25:40.166Z,-1.05
2022-12-13T15:29:42.035Z,-1.08
2022-12-13T15:33:48.527Z,-1.12
2022-12-13T15:37:50.363Z,-1.16
2022-12-13T15:41:54.380Z,-1.19
2022-12-13T15:45:55.761Z,-1.24
2022-12-13T15:49:59.426Z,-1.28
2022-12-13T15:54:22.738Z,-1.33
2022-12-13T15:58:34.382Z,-1.38
2022-12-13T16:02:36.455Z,-1.41
2022-12-13T16:06:38.177Z,-1.46
2022-12-13T16:10:39.495Z,-1.52
2022-12-13T16:14:48.969Z,-1.56
2022-12-13T16:18:52.928Z,-1.64
2022-12-13T16:22:54.254Z,-1.66
2022-12-13T16:27:01.358Z,-1.72
2022-12-13T16:31:13.086Z,-1.76
2022-12-13T16:35:14.404Z,-1.81
2022-12-13T16:39:15.730Z,-1.85
2022-12-13T16:43:18.490Z,-1.86
2022-12-13T16:47:27.522Z,-1.85
2022-12-13T16:51:38.997Z,-1.87
2022-12-13T16:55:43.047Z,-1.88
2022-12-13T16:59:44.318Z,-1.88
2022-12-13T17:03:45.848Z,-1.91
2022-12-13T17:07:47.271Z,-1.91
2022-12-13T17:11:49.525Z,-1.93
2022-12-13T17:15:59.372Z,-1.94
2022-12-13T17:20:04.070Z,-1.98
2022-12-13T17:24:08.209Z,-1.99
2022-12-13T17:28:10.623Z,-2.00
2022-12-13T17:32:11.935Z,-1.99
2022-12-13T17:36:14.127Z,-1.99
2022-12-13T17:40:16.756Z,-1.98
2022-12-13T17:44:18.128Z,-2.00
2022-12-13T17:48:19.588Z,-2.00
2022-12-13T17:52:21.273Z,-2.00
2022-12-13T17:56:22.532Z,-2.02
2022-12-13T18:00:23.839Z,-2.02
2022-12-13T18:04:25.200Z,-2.06
2022-12-13T18:08:27.159Z,-2.06
2022-12-13T18:12:28.416Z,-2.05
2022-12-13T18:16:36.239Z,-2.08
2022-12-13T18:20:38.620Z,-2.11
2022-12-13T18:24:44.994Z,-2.11
2022-12-13T18:28:46.440Z,-2.13
2022-12-13T18:32:47.781Z,-2.12
2022-12-13T18:36:49.055Z,-2.11
2022-12-13T18:40:50.488Z,-2.12
2022-12-13T18:44:54.632Z,-2.09
2022-12-13T18:48:57.991Z,-2.11
2022-12-13T18:53:01.198Z,-2.13
2022-12-13T18:57:02.794Z,-2.15
2022-12-13T19:01:04.940Z,-2.16
2022-12-13T19:05:06.389Z,-2.15
2022-12-13T19:09:08.400Z,-2.15
2022-12-13T19:13:11.089Z,-2.15
2022-12-13T19:17:12.447Z,-2.13
2022-12-13T19:21:15.230Z,-2.13
2022-12-13T19:25:17.215Z,-2.14
2022-12-13T19:29:18.916Z,-2.13
2022-12-13T19:33:20.323Z,-2.11
2022-12-13T19:37:22.002Z,-2.10
2022-12-13T19:41:24.192Z,-2.13
2022-12-13T19:45:25.886Z,-2.12
2022-12-13T19:49:27.204Z,-2.13
2022-12-13T19:53:29.675Z,-2.10
2022-12-13T19:57:34.281Z,-2.09
2022-12-13T20:01:36.443Z,-2.07
2022-12-13T20:05:38.417Z,-2.07
2022-12-13T20:09:39.850Z,-2.07
2022-12-13T20:13:41.266Z,-2.09
2022-12-13T20:17:42.724Z,-2.08
2022-12-13T20:21:46.119Z,-2.06
2022-12-13T20:25:48.771Z,-2.07
2022-12-13T20:29:50.313Z,-2.07
2022-12-13T20:33:58.627Z,-2.08
2022-12-13T20:37:59.903Z,-2.09
2022-12-13T20:42:01.744Z,-2.10
2022-12-13T20:46:10.408Z,-2.11
2022-12-13T20:50:12.152Z,-2.12
2022-12-13T20:54:13.668Z,-2.10
2022-12-13T20:58:15.050Z,-2.10
2022-12-13T21:02:16.426Z,-2.09
2022-12-13T21:06:18.591Z,-2.09
2022-12-13T21:10:19.832Z,-2.10
2022-12-13T21:14:26.547Z,-2.08
2022-12-13T21:18:27.779Z,-2.09
2022-12-13T21:22:29.511Z,-2.09
2022-12-13T21:26:35.308Z,-2.09
2022-12-13T21:30:37.511Z,-2.06
2022-12-13T21:34:39.757Z,-2.06
2022-12-13T21:38:41.950Z,-2.05
2022-12-13T21:42:43.344Z,-2.06
2022-12-13T21:47:11.227Z,-2.09
2022-12-13T21:51:07.259Z,-2.10
2022-12-13T21:55:37.753Z,-2.09
2022-12-13T21:59:31.878Z,-2.07
2022-12-13T22:03:33.280Z,-2.07
2022-12-13T22:07:34.619Z,-2.08
2022-12-13T22:11:36.494Z,-2.04
2022-12-13T22:15:37.815Z,-2.09
2022-12-13T22:19:39.553Z,-2.05
2022-12-13T22:23:40.855Z,-2.04
2022-12-13T22:27:42.232Z,-2.06
2022-12-13T22:31:43.603Z,-2.04
2022-12-13T22:35:50.241Z,-2.03
2022-12-13T22:39:51.609Z,-2.06
2022-12-13T22:43:52.925Z,-2.03
2022-12-13T22:47:54.533Z,-2.06
2022-12-13T22:51:58.860Z,-2.07
2022-12-13T22:56:08.519Z,-2.06
2022-12-13T23:00:19.092Z,-2.06
2022-12-13T23:04:20.923Z,-2.06
2022-12-13T23:12:58.888Z,-2.00
2022-12-13T23:17:08.847Z,-1.99
2022-12-13T23:21:11.186Z,-1.99
2022-12-13T23:25:15.076Z,-2.01
2022-12-13T23:33:36.060Z,-1.98
2022-12-13T23:37:37.613Z,-1.97
2022-12-13T23:41:39.351Z,-1.95
2022-12-13T23:45:40.702Z,-1.94
2022-12-13T23:49:42.095Z,-1.93
2022-12-13T23:53:43.454Z,-1.92
2022-12-13T23:57:44.831Z,-1.92
